createdAt,value
2017-12-06T07:49:29.494Z,0
2017-12-06T12:03:36.782Z,76
2017-12-06T12:07:49.688Z,76
2017-12-06T12:19:42.159Z,72.00
2017-12-06T12:20:43.140Z,72.00
2017-12-06T12:22:26.668Z,76.00
2017-12-06T12:23:26.669Z,76.00
2017-12-06T12:25:18.625Z,76.00
2017-12-06T12:26:19.625Z,72.00
2017-12-06T12:29:02.391Z,76.00
2017-12-06T12:30:01.892Z,16.00
2017-12-06T12:30:54.987Z,76.00
2017-12-06T12:31:55.949Z,76.00
2017-12-06T12:33:48.374Z,76.00
2017-12-06T12:34:49.876Z,72.00
2017-12-06T12:36:40.824Z,72.00
2017-12-06T12:37:41.805Z,72.00
2017-12-06T12:39:35.237Z,72.00
2017-12-06T12:40:34.738Z,4.00
2017-12-06T12:42:27.670Z,4.00
2017-12-06T12:43:27.671Z,4.00
2017-12-06T12:45:21.101Z,4.00
2017-12-06T12:46:20.600Z,4.00
2017-12-06T12:48:13.531Z,4.00
2017-12-06T12:49:13.531Z,8.00
2017-12-06T12:51:05.960Z,4.00
2017-12-06T12:52:05.963Z,8.00
2017-12-06T12:54:00.893Z,4.00
2017-12-06T12:54:59.392Z,8.00
2017-12-06T12:56:51.352Z,8.00
2017-12-06T12:57:52.334Z,8.00
2017-12-06T12:59:44.763Z,8.00
2017-12-06T13:00:45.267Z,8.00
2017-12-06T13:02:38.195Z,8.00
2017-12-06T13:03:38.198Z,4.00
2017-12-06T13:05:31.131Z,4.00
2017-12-06T13:06:31.633Z,4.00
2017-12-06T13:08:24.064Z,8.00
2017-12-06T13:09:24.063Z,4.00
2017-12-06T13:11:16.494Z,8.00
2017-12-06T13:12:18.023Z,4.00
2017-12-06T13:14:09.924Z,4.00
2017-12-06T13:15:09.928Z,4.00
2017-12-06T13:17:02.858Z,4.00
2017-12-06T13:18:02.864Z,4.00
2017-12-06T13:19:55.295Z,4.00
2017-12-06T13:20:55.797Z,4.00
2017-12-06T13:22:51.230Z,4.00
2017-12-06T13:23:48.727Z,4.00
2017-12-06T13:25:41.162Z,4.00
2017-12-06T13:26:41.661Z,4.00
2017-12-06T13:28:35.593Z,4.00
2017-12-06T13:29:33.615Z,4.00
2017-12-06T13:31:27.532Z,4.00
2017-12-06T13:32:27.522Z,4.00
2017-12-06T13:34:19.457Z,8.00
2017-12-06T13:35:21.455Z,4.00
2017-12-06T13:37:13.387Z,4.00
2017-12-06T13:38:13.387Z,4.00
2017-12-06T13:40:06.819Z,4.00
2017-12-06T13:41:06.320Z,4.00
2017-12-06T13:42:59.251Z,4.00
2017-12-06T13:43:58.752Z,4.00
2017-12-06T13:45:51.683Z,4.00
2017-12-06T13:46:52.687Z,4.00
2017-12-06T13:48:45.618Z,4.00
2017-12-06T13:49:45.117Z,4.00
2017-12-06T13:51:37.550Z,0.00
2017-12-06T13:52:37.074Z,0.00
2017-12-06T13:54:30.482Z,4.00
2017-12-06T13:55:31.481Z,4.00
2017-12-06T13:57:23.414Z,4.00
2017-12-06T13:58:24.414Z,4.00
2017-12-06T14:00:16.348Z,4.00
2017-12-06T14:01:17.848Z,4.00
2017-12-06T14:03:08.802Z,0.00
2017-12-06T14:04:09.780Z,0.00
2017-12-06T14:06:01.712Z,0.00
2017-12-06T14:07:03.216Z,0.00
2017-12-06T14:08:55.143Z,0.00
2017-12-06T14:09:56.145Z,0.00
2017-12-06T14:11:47.594Z,0.00
2017-12-06T14:12:47.603Z,0.00
2017-12-06T14:14:41.008Z,4.00
2017-12-06T14:15:42.011Z,4.00
2017-12-06T14:17:33.463Z,4.00
2017-12-06T14:18:33.467Z,4.00
2017-12-06T14:20:26.874Z,4.00
2017-12-06T14:21:26.396Z,4.00
2017-12-06T14:23:19.323Z,4.00
2017-12-06T14:24:20.308Z,4.00
2017-12-06T14:26:13.240Z,4.00
2017-12-06T14:27:13.738Z,4.00
2017-12-06T14:29:06.172Z,4.00
2017-12-06T14:30:06.672Z,4.00
2017-12-06T14:31:59.106Z,4.00
2017-12-06T14:32:59.105Z,0.00
2017-12-06T14:34:51.539Z,0.00
2017-12-06T14:35:51.060Z,0.00
2017-12-06T14:37:45.469Z,0.00
2017-12-06T14:38:45.969Z,0.00
2017-12-06T14:40:37.459Z,72.00
2017-12-06T14:41:36.926Z,76.00
2017-12-06T14:43:30.835Z,80.00
2017-12-06T14:44:31.338Z,76.00
2017-12-06T14:46:23.775Z,80.00
2017-12-06T14:47:23.777Z,80.00
2017-12-06T14:49:16.712Z,76.00
2017-12-06T14:50:17.714Z,76.00
2017-12-06T14:52:10.142Z,76.00
2017-12-06T14:53:09.145Z,76.00
2017-12-06T14:55:02.577Z,76.00
2017-12-06T14:56:02.575Z,76.00
2017-12-06T14:57:56.009Z,76.00
2017-12-06T14:58:55.009Z,76.00
2017-12-06T15:00:48.442Z,76.00
2017-12-06T15:01:48.480Z,76.00
2017-12-06T15:03:41.373Z,72.00
2017-12-06T15:04:41.377Z,72.00
2017-12-06T15:06:33.808Z,72.00
2017-12-06T15:07:33.331Z,72.00
2017-12-06T15:09:27.241Z,72.00
2017-12-06T15:10:27.740Z,72.00
2017-12-06T15:12:19.193Z,16.00
2017-12-06T15:13:20.173Z,16.00
2017-12-06T15:15:12.607Z,16.00
2017-12-06T15:16:13.109Z,0.00
2017-12-06T15:18:06.040Z,0.00
2017-12-06T15:19:06.042Z,0.00
2017-12-06T15:20:58.474Z,0.00
2017-12-06T15:21:59.474Z,0.00
2017-12-06T15:23:51.909Z,0.00
2017-12-06T15:24:51.909Z,0.00
2017-12-06T15:26:43.847Z,0.00
2017-12-06T15:27:44.846Z,0.00
2017-12-06T15:29:37.777Z,0.00
2017-12-06T15:30:38.282Z,0.00
2017-12-06T15:32:29.725Z,0.00
2017-12-06T15:33:31.707Z,0.00
2017-12-06T15:35:22.644Z,0.00
2017-12-06T15:36:23.640Z,0.00
2017-12-06T15:38:17.075Z,0.00
2017-12-06T15:39:17.571Z,0.00
2017-12-06T15:41:08.508Z,0.00
2017-12-06T15:42:08.529Z,0.00
2017-12-06T15:44:02.440Z,0.00
2017-12-06T15:45:02.941Z,0.00
2017-12-06T15:46:54.874Z,0.00
2017-12-06T15:47:55.871Z,0.00
2017-12-06T15:49:47.321Z,0.00
2017-12-06T15:50:48.301Z,0.00
2017-12-06T15:52:40.732Z,0.00
2017-12-06T15:53:41.232Z,0.00
2017-12-06T15:55:33.162Z,0.00
2017-12-06T15:56:34.662Z,0.00
2017-12-06T15:58:27.098Z,0.00
2017-12-06T15:59:27.095Z,0.00
2017-12-06T16:01:19.117Z,0.00
2017-12-06T16:02:21.073Z,0.00
2017-12-06T16:04:12.062Z,0.00
2017-12-06T16:05:12.068Z,0.00
2017-12-06T16:07:05.035Z,0.00
2017-12-06T16:08:05.382Z,0.00
2017-12-06T16:09:58.950Z,0.00
2017-12-06T16:10:58.956Z,0.00
2017-12-06T16:12:52.148Z,0.00
2017-12-06T16:13:52.155Z,0.00
2017-12-06T16:15:45.149Z,0.00
2017-12-06T16:16:45.146Z,0.00
2017-12-06T16:18:38.015Z,0.00
2017-12-06T16:19:38.036Z,0.00
2017-12-06T16:21:30.929Z,0.00
2017-12-06T16:22:31.039Z,0.00
2017-12-06T16:24:24.475Z,0.00
2017-12-06T16:25:23.887Z,0.00
2017-12-06T16:27:17.003Z,0.00
2017-12-06T16:28:17.039Z,0.00
2017-12-06T16:30:09.965Z,0.00
2017-12-06T16:31:09.961Z,0.00
2017-12-06T16:33:02.903Z,0.00
2017-12-06T16:34:02.911Z,0.00
2017-12-06T16:35:55.819Z,0.00
2017-12-06T16:36:55.843Z,72.00
2017-12-06T16:38:48.813Z,76.00
2017-12-06T16:39:48.780Z,76.00
2017-12-06T16:41:41.684Z,76.00
2017-12-06T16:42:41.707Z,76.00
2017-12-06T16:44:34.733Z,76.00
2017-12-06T16:45:34.643Z,76.00
2017-12-06T16:47:27.551Z,76.00
2017-12-06T16:48:27.576Z,76.00
2017-12-06T16:50:20.501Z,76.00
2017-12-06T16:51:20.505Z,76.00
2017-12-06T16:53:13.434Z,76.00
2017-12-06T16:54:13.437Z,72.00
2017-12-06T16:56:06.348Z,72.00
2017-12-06T16:57:06.370Z,72.00
2017-12-06T16:58:59.310Z,72.00
2017-12-06T16:59:59.305Z,72.00
2017-12-06T17:01:52.212Z,72.00
2017-12-06T17:02:52.239Z,76.00
2017-12-06T17:04:45.165Z,76.00
2017-12-06T17:05:45.168Z,72.00
2017-12-06T17:07:38.079Z,72.00
2017-12-06T17:08:38.100Z,72.00
2017-12-06T17:10:31.029Z,72.00
2017-12-06T17:11:31.034Z,0.00
2017-12-06T17:13:23.974Z,0.00
2017-12-06T17:14:23.974Z,0.00
2017-12-06T17:16:16.880Z,0.00
2017-12-06T17:17:16.905Z,0.00
2017-12-06T17:19:09.828Z,0.00
2017-12-06T17:20:09.833Z,0.00
2017-12-06T17:22:02.741Z,0.00
2017-12-06T17:23:02.768Z,0.00
2017-12-06T17:24:55.700Z,0.00
2017-12-06T17:25:55.703Z,0.00
2017-12-06T17:27:48.609Z,0.00
2017-12-06T17:28:48.631Z,0.00
2017-12-06T17:30:41.559Z,0.00
2017-12-06T17:31:41.564Z,0.00
2017-12-06T17:33:34.491Z,0.00
2017-12-06T17:34:34.496Z,0.00
2017-12-06T17:36:27.408Z,0.00
2017-12-06T17:37:27.437Z,0.00
2017-12-06T17:39:20.363Z,0.00
2017-12-06T17:40:20.371Z,0.00
2017-12-06T17:42:13.279Z,0.00
2017-12-06T17:43:13.302Z,0.00
2017-12-06T17:45:06.229Z,0.00
2017-12-06T17:46:06.239Z,0.00
2017-12-06T17:47:59.142Z,0.00
2017-12-06T17:48:59.168Z,0.00
2017-12-06T17:50:52.094Z,0.00
2017-12-06T17:51:52.097Z,0.00
2017-12-06T17:53:45.035Z,0.00
2017-12-06T17:54:45.041Z,0.00
2017-12-06T17:56:37.958Z,0.00
2017-12-06T17:57:37.978Z,0.00
2017-12-06T17:59:30.905Z,0.00
2017-12-06T18:00:30.911Z,0.00
2017-12-06T18:02:23.823Z,0.00
2017-12-06T18:03:23.844Z,0.00
2017-12-06T18:05:16.771Z,0.00
2017-12-06T18:06:16.774Z,0.00
2017-12-06T18:08:09.684Z,0.00
2017-12-06T18:09:09.706Z,0.00
2017-12-06T18:11:02.640Z,0.00
2017-12-06T18:12:02.642Z,0.00
2017-12-06T18:13:55.583Z,0.00
2017-12-06T18:14:55.616Z,0.00
2017-12-06T18:16:48.495Z,0.00
2017-12-06T18:17:48.518Z,0.00
2017-12-06T18:19:41.449Z,0.00
2017-12-06T18:20:41.453Z,0.00
2017-12-06T18:22:34.370Z,0.00
2017-12-06T18:23:34.396Z,0.00
2017-12-06T18:25:27.349Z,0.00
2017-12-06T18:26:27.324Z,0.00
2017-12-06T18:28:20.484Z,0.00
2017-12-06T18:29:20.508Z,0.00
2017-12-06T18:31:13.442Z,0.00
2017-12-06T18:32:13.459Z,72.00
2017-12-06T18:34:06.391Z,80.00
2017-12-06T18:35:06.446Z,76.00
2017-12-06T18:36:59.287Z,76.00
2017-12-06T18:37:59.312Z,76.00
2017-12-06T18:39:52.240Z,76.00
2017-12-06T18:40:52.243Z,76.00
2017-12-06T18:42:45.153Z,76.00
2017-12-06T18:43:45.176Z,76.00
2017-12-06T18:45:38.102Z,76.00
2017-12-06T18:46:38.106Z,76.00
2017-12-06T18:48:31.023Z,72.00
2017-12-06T18:49:31.052Z,72.00
2017-12-06T18:51:23.997Z,72.00
2017-12-06T18:52:23.997Z,72.00
2017-12-06T18:54:16.927Z,72.00
2017-12-06T18:55:16.933Z,76.00
2017-12-06T18:57:09.839Z,76.00
2017-12-06T18:58:09.866Z,76.00
2017-12-06T19:00:02.800Z,72.00
2017-12-06T19:01:02.807Z,72.00
2017-12-06T19:02:55.720Z,72.00
2017-12-06T19:03:55.739Z,72.00
2017-12-06T19:05:48.680Z,72.00
2017-12-06T19:06:48.683Z,72.00
2017-12-06T19:08:41.589Z,72.00
2017-12-06T19:09:41.613Z,72.00
2017-12-06T19:11:34.540Z,68.00
2017-12-06T19:12:34.546Z,68.00
